RYR4TT EGPH-LZIB
Flight info
| Callsign | RYR4TT |
|---|---|
| Flight time | N/A |
| Altitude | 37000 |
| Route | TLA Y96 OTBUN DCT LONAM DCT POVEL DCT OMELO DCT EVIKU DCT BNO DCT ODNEM A4 BERVA |
| Aircraft | B38M/M-SDE1FGHILORVWXY/HB1 |
Departure
| Time | 2026-05-07 14:53 |
|---|---|
| Airport | Edinburgh Airport (EGPH) |
Arrival
| Time | N/A |
|---|---|
| Airport | M. R. Štefánik Airport (LZIB) |
| Time | Latitude | Longitude | Altitude | Speed | Heading |
|---|---|---|---|---|---|
| 2026-05-07 14:16 | 55.94657 | -3.36622 | 119 ft | 0 kts | 89° |
| 2026-05-07 14:18 | 55.94612 | -3.36635 | 117 ft | 0 kts | 89° |
| 2026-05-07 14:18 | 55.94572 | -3.36624 | 119 ft | 0 kts | 89° |
| 2026-05-07 14:43 | 55.94572 | -3.36650 | 116 ft | 4 kts | 95° |
| 2026-05-07 14:44 | 55.94576 | -3.36697 | 118 ft | 4 kts | 103° |
| 2026-05-07 14:44 | 55.94579 | -3.36739 | 115 ft | 4 kts | 63° |
| 2026-05-07 14:44 | 55.94576 | -3.36748 | 117 ft | 0 kts | 44° |
| 2026-05-07 14:47 | 55.94580 | -3.36744 | 116 ft | 2 kts | 32° |
| 2026-05-07 14:48 | 55.94612 | -3.36734 | 116 ft | 8 kts | 0° |
| 2026-05-07 14:48 | 55.94685 | -3.36735 | 119 ft | 12 kts | 359° |
| 2026-05-07 14:48 | 55.94755 | -3.36751 | 118 ft | 11 kts | 333° |
| 2026-05-07 14:48 | 55.94834 | -3.36778 | 119 ft | 13 kts | 359° |
| 2026-05-07 14:49 | 55.94925 | -3.36822 | 118 ft | 14 kts | 356° |
| 2026-05-07 14:49 | 55.94993 | -3.36697 | 116 ft | 16 kts | 59° |
| 2026-05-07 14:49 | 55.95053 | -3.36520 | 116 ft | 18 kts | 59° |
| 2026-05-07 14:49 | 55.95119 | -3.36326 | 115 ft | 18 kts | 59° |
| 2026-05-07 14:50 | 55.95182 | -3.36139 | 114 ft | 18 kts | 59° |
| 2026-05-07 14:50 | 55.95251 | -3.35936 | 116 ft | 20 kts | 58° |
| 2026-05-07 14:50 | 55.95324 | -3.35719 | 116 ft | 17 kts | 59° |
| 2026-05-07 14:50 | 55.95383 | -3.35547 | 117 ft | 17 kts | 59° |
| 2026-05-07 14:51 | 55.95436 | -3.35413 | 119 ft | 11 kts | 43° |
| 2026-05-07 14:51 | 55.95505 | -3.35446 | 115 ft | 12 kts | 328° |
| 2026-05-07 14:51 | 55.95566 | -3.35512 | 112 ft | 4 kts | 326° |
| 2026-05-07 14:51 | 55.95571 | -3.35562 | 114 ft | 5 kts | 252° |
| 2026-05-07 14:52 | 55.95550 | -3.35629 | 114 ft | 8 kts | 239° |
| 2026-05-07 14:52 | 55.95456 | -3.35903 | 112 ft | 61 kts | 239° |
| 2026-05-07 14:52 | 55.95105 | -3.36940 | 116 ft | 131 kts | 239° |
| 2026-05-07 14:52 | 55.94562 | -3.38589 | 374 ft | 167 kts | 237° |
| 2026-05-07 14:53 | 55.93976 | -3.40333 | 1498 ft | 159 kts | 234° |
| 2026-05-07 14:53 | 55.93391 | -3.41995 | 2397 ft | 162 kts | 236° |
| 2026-05-07 14:53 | 55.92758 | -3.43807 | 2866 ft | 183 kts | 235° |
| 2026-05-07 14:53 | 55.92049 | -3.45844 | 3303 ft | 204 kts | 235° |
| 2026-05-07 14:54 | 55.91257 | -3.48103 | 3707 ft | 228 kts | 235° |
| 2026-05-07 14:54 | 55.90443 | -3.50489 | 4753 ft | 225 kts | 237° |
| 2026-05-07 14:54 | 55.89622 | -3.53003 | 5357 ft | 243 kts | 237° |
| 2026-05-07 14:54 | 55.88755 | -3.55658 | 5857 ft | 251 kts | 238° |
| 2026-05-07 14:55 | 55.87706 | -3.58119 | 5942 ft | 248 kts | 219° |
| 2026-05-07 14:55 | 55.86182 | -3.59494 | 5981 ft | 249 kts | 194° |
| 2026-05-07 14:55 | 55.84450 | -3.59516 | 5987 ft | 253 kts | 169° |
| 2026-05-07 14:55 | 55.82840 | -3.58208 | 5993 ft | 260 kts | 147° |
| 2026-05-07 14:56 | 55.81633 | -3.55766 | 5993 ft | 269 kts | 123° |
| 2026-05-07 14:56 | 55.80770 | -3.52799 | 5994 ft | 268 kts | 131° |
| 2026-05-07 14:56 | 55.79360 | -3.50886 | 5939 ft | 252 kts | 166° |
| 2026-05-07 14:56 | 55.77647 | -3.50148 | 5979 ft | 255 kts | 168° |
| 2026-05-07 14:57 | 55.75931 | -3.49288 | 5990 ft | 257 kts | 167° |
| 2026-05-07 14:57 | 55.74219 | -3.48398 | 5978 ft | 256 kts | 167° |
| 2026-05-07 14:57 | 55.72514 | -3.47496 | 5994 ft | 256 kts | 167° |
| 2026-05-07 14:57 | 55.70811 | -3.46584 | 6004 ft | 257 kts | 167° |
| 2026-05-07 14:58 | 55.69096 | -3.45659 | 6584 ft | 256 kts | 167° |
| 2026-05-07 14:58 | 55.67386 | -3.44734 | 7484 ft | 260 kts | 167° |
| 2026-05-07 14:58 | 55.65638 | -3.43787 | 8317 ft | 264 kts | 167° |
| 2026-05-07 14:58 | 55.63869 | -3.42828 | 9175 ft | 268 kts | 167° |
| 2026-05-07 14:59 | 55.62074 | -3.41853 | 9998 ft | 271 kts | 167° |
| 2026-05-07 14:59 | 55.60230 | -3.40857 | 10503 ft | 286 kts | 167° |
| 2026-05-07 14:59 | 55.58265 | -3.39792 | 10933 ft | 302 kts | 167° |
| 2026-05-07 14:59 | 55.56221 | -3.38686 | 11521 ft | 311 kts | 167° |
| 2026-05-07 15:00 | 55.54171 | -3.37578 | 12331 ft | 313 kts | 167° |
| 2026-05-07 15:00 | 55.52110 | -3.36212 | 13092 ft | 322 kts | 154° |
| 2026-05-07 15:00 | 55.50392 | -3.33600 | 13824 ft | 335 kts | 131° |
| 2026-05-07 15:00 | 55.49338 | -3.29879 | 14554 ft | 346 kts | 109° |
| 2026-05-07 15:01 | 55.48892 | -3.25669 | 15275 ft | 351 kts | 104° |
| 2026-05-07 15:01 | 55.48593 | -3.22802 | 15754 ft | 353 kts | 104° |
| 2026-05-07 15:01 | 55.47992 | -3.17144 | 16694 ft | 356 kts | 104° |
| 2026-05-07 15:01 | 55.47682 | -3.14234 | 17164 ft | 358 kts | 104° |
| 2026-05-07 15:02 | 55.47218 | -3.09907 | 17862 ft | 361 kts | 104° |
| 2026-05-07 15:02 | 55.46749 | -3.05545 | 18480 ft | 364 kts | 104° |
| 2026-05-07 15:02 | 55.46254 | -3.01155 | 19027 ft | 366 kts | 109° |
| 2026-05-07 15:02 | 55.45258 | -2.97145 | 19557 ft | 362 kts | 123° |
| 2026-05-07 15:03 | 55.44024 | -2.93178 | 20047 ft | 367 kts | 122° |
| 2026-05-07 15:03 | 55.42807 | -2.89281 | 20587 ft | 369 kts | 122° |
| 2026-05-07 15:03 | 55.41552 | -2.85309 | 21118 ft | 372 kts | 123° |
| 2026-05-07 15:03 | 55.40265 | -2.81266 | 21650 ft | 375 kts | 123° |
| 2026-05-07 15:04 | 55.38999 | -2.77301 | 22162 ft | 378 kts | 123° |
| 2026-05-07 15:04 | 55.37701 | -2.73248 | 22682 ft | 382 kts | 123° |
| 2026-05-07 15:04 | 55.36393 | -2.69167 | 23191 ft | 385 kts | 123° |
| 2026-05-07 15:04 | 55.35072 | -2.65053 | 23675 ft | 388 kts | 123° |
| 2026-05-07 15:05 | 55.33742 | -2.60918 | 24111 ft | 391 kts | 123° |
| 2026-05-07 15:05 | 55.32399 | -2.56751 | 24557 ft | 393 kts | 123° |
| 2026-05-07 15:05 | 55.31048 | -2.52566 | 25002 ft | 395 kts | 123° |
| 2026-05-07 15:05 | 55.29686 | -2.48357 | 25447 ft | 397 kts | 123° |
| 2026-05-07 15:06 | 55.28326 | -2.44124 | 25872 ft | 401 kts | 120° |
| 2026-05-07 15:06 | 55.27321 | -2.39525 | 26330 ft | 406 kts | 111° |
| 2026-05-07 15:06 | 55.26423 | -2.34830 | 26724 ft | 408 kts | 112° |
| 2026-05-07 15:06 | 55.25502 | -2.30094 | 27121 ft | 411 kts | 112° |
| 2026-05-07 15:07 | 55.24579 | -2.25341 | 27545 ft | 413 kts | 111° |
| 2026-05-07 15:07 | 55.23650 | -2.20568 | 27931 ft | 415 kts | 111° |
| 2026-05-07 15:07 | 55.22713 | -2.15766 | 28333 ft | 417 kts | 111° |
| 2026-05-07 15:07 | 55.21770 | -2.10944 | 28720 ft | 420 kts | 111° |
| 2026-05-07 15:08 | 55.20819 | -2.06091 | 29111 ft | 422 kts | 111° |
| 2026-05-07 15:08 | 55.19862 | -2.01218 | 29483 ft | 425 kts | 111° |
| 2026-05-07 15:08 | 55.18895 | -1.96316 | 29848 ft | 427 kts | 111° |
| 2026-05-07 15:08 | 55.17922 | -1.91391 | 30193 ft | 429 kts | 111° |
| 2026-05-07 15:09 | 55.16944 | -1.86451 | 30501 ft | 431 kts | 111° |
| 2026-05-07 15:09 | 55.15959 | -1.81489 | 30850 ft | 432 kts | 111° |
| 2026-05-07 15:09 | 55.14970 | -1.76517 | 31164 ft | 434 kts | 111° |
| 2026-05-07 15:09 | 55.13975 | -1.71533 | 31487 ft | 435 kts | 111° |
| 2026-05-07 15:10 | 55.12976 | -1.66537 | 31791 ft | 436 kts | 111° |
| 2026-05-07 15:10 | 55.11970 | -1.61520 | 32098 ft | 438 kts | 112° |
| 2026-05-07 15:10 | 55.10962 | -1.56507 | 32399 ft | 439 kts | 112° |
| 2026-05-07 15:10 | 55.09946 | -1.51467 | 32687 ft | 440 kts | 112° |
| 2026-05-07 15:11 | 55.08923 | -1.46407 | 32979 ft | 442 kts | 112° |
| 2026-05-07 15:11 | 55.07898 | -1.41348 | 33272 ft | 443 kts | 112° |
| 2026-05-07 15:11 | 55.06870 | -1.36287 | 33646 ft | 442 kts | 112° |
| 2026-05-07 15:11 | 55.05842 | -1.31238 | 34050 ft | 440 kts | 112° |
| 2026-05-07 15:12 | 55.04830 | -1.26280 | 34357 ft | 440 kts | 112° |
| 2026-05-07 15:12 | 55.03802 | -1.21255 | 34614 ft | 441 kts | 112° |
| 2026-05-07 15:12 | 55.02768 | -1.16217 | 34847 ft | 442 kts | 112° |
| 2026-05-07 15:12 | 55.01731 | -1.11174 | 35086 ft | 442 kts | 112° |
| 2026-05-07 15:13 | 55.00690 | -1.06130 | 35332 ft | 443 kts | 112° |
| 2026-05-07 15:13 | 54.99645 | -1.01075 | 35572 ft | 444 kts | 112° |
| 2026-05-07 15:13 | 54.98595 | -0.96007 | 35817 ft | 445 kts | 112° |
| 2026-05-07 15:13 | 54.97543 | -0.90945 | 36058 ft | 445 kts | 112° |
| 2026-05-07 15:14 | 54.96486 | -0.85871 | 36284 ft | 446 kts | 112° |
| 2026-05-07 15:14 | 54.95427 | -0.80799 | 36497 ft | 447 kts | 112° |
| 2026-05-07 15:14 | 54.94360 | -0.75705 | 36703 ft | 448 kts | 112° |
| 2026-05-07 15:14 | 54.93292 | -0.70620 | 36914 ft | 449 kts | 112° |
| 2026-05-07 15:15 | 54.92218 | -0.65514 | 37044 ft | 450 kts | 112° |
| 2026-05-07 15:15 | 54.91141 | -0.60409 | 37043 ft | 450 kts | 112° |
| 2026-05-07 15:15 | 54.88982 | -0.50212 | 37046 ft | 449 kts | 113° |
| 2026-05-07 15:16 | 54.86819 | -0.40051 | 37045 ft | 449 kts | 112° |
| 2026-05-07 15:16 | 54.84645 | -0.29881 | 37052 ft | 449 kts | 113° |
| 2026-05-07 15:17 | 54.82464 | -0.19738 | 37056 ft | 449 kts | 113° |
| 2026-05-07 15:17 | 54.80274 | -0.09602 | 37056 ft | 449 kts | 112° |
| 2026-05-07 15:18 | 54.78077 | 0.00521 | 37061 ft | 449 kts | 113° |
| 2026-05-07 15:18 | 54.75873 | 0.10626 | 37064 ft | 448 kts | 113° |
| 2026-05-07 15:19 | 54.73660 | 0.20717 | 37064 ft | 448 kts | 112° |
| 2026-05-07 15:19 | 54.71440 | 0.30793 | 37068 ft | 448 kts | 113° |
| 2026-05-07 15:20 | 54.69213 | 0.40850 | 37072 ft | 448 kts | 112° |
| 2026-05-07 15:20 | 54.66979 | 0.50897 | 37075 ft | 447 kts | 113° |
| 2026-05-07 15:21 | 54.64739 | 0.60917 | 37078 ft | 447 kts | 113° |
| 2026-05-07 15:21 | 54.62493 | 0.70922 | 37082 ft | 447 kts | 113° |
| 2026-05-07 15:22 | 54.60237 | 0.80914 | 37083 ft | 447 kts | 113° |
| 2026-05-07 15:22 | 54.57990 | 0.90824 | 37089 ft | 446 kts | 113° |
| 2026-05-07 15:23 | 54.55723 | 1.00779 | 37091 ft | 446 kts | 113° |
| 2026-05-07 15:23 | 54.53447 | 1.10723 | 37093 ft | 446 kts | 113° |
| 2026-05-07 15:24 | 54.51164 | 1.20648 | 37097 ft | 446 kts | 113° |
| 2026-05-07 15:24 | 54.48875 | 1.30558 | 37099 ft | 446 kts | 113° |
| 2026-05-07 15:25 | 54.46577 | 1.40458 | 37103 ft | 445 kts | 113° |
| 2026-05-07 15:25 | 54.44274 | 1.50335 | 37101 ft | 445 kts | 113° |
| 2026-05-07 15:26 | 54.41962 | 1.60204 | 37103 ft | 445 kts | 113° |
| 2026-05-07 15:26 | 54.39644 | 1.70055 | 37105 ft | 445 kts | 113° |
| 2026-05-07 15:27 | 54.37320 | 1.79884 | 37108 ft | 445 kts | 113° |
| 2026-05-07 15:27 | 54.34988 | 1.89704 | 37107 ft | 445 kts | 113° |
| 2026-05-07 15:28 | 54.32649 | 1.99509 | 37111 ft | 444 kts | 113° |
| 2026-05-07 15:28 | 54.30303 | 2.09294 | 37110 ft | 444 kts | 113° |
| 2026-05-07 15:29 | 54.27948 | 2.19076 | 37111 ft | 444 kts | 113° |
| 2026-05-07 15:29 | 54.25587 | 2.28840 | 37112 ft | 444 kts | 113° |
| 2026-05-07 15:30 | 54.23216 | 2.38601 | 37115 ft | 444 kts | 113° |
| 2026-05-07 15:30 | 54.20840 | 2.48340 | 37115 ft | 444 kts | 113° |
| 2026-05-07 15:31 | 54.18455 | 2.58068 | 37114 ft | 444 kts | 113° |
| 2026-05-07 15:31 | 54.16063 | 2.67786 | 37114 ft | 444 kts | 114° |
| 2026-05-07 15:32 | 54.13662 | 2.77494 | 37118 ft | 444 kts | 114° |
| 2026-05-07 15:32 | 54.11256 | 2.87183 | 37119 ft | 444 kts | 114° |
| 2026-05-07 15:33 | 54.08841 | 2.96864 | 37117 ft | 444 kts | 114° |
| 2026-05-07 15:33 | 54.06434 | 3.06472 | 37116 ft | 444 kts | 114° |
| 2026-05-07 15:34 | 54.04004 | 3.16128 | 37118 ft | 444 kts | 114° |
| 2026-05-07 15:34 | 54.01568 | 3.25768 | 37117 ft | 444 kts | 114° |
| 2026-05-07 15:35 | 53.99124 | 3.35395 | 37118 ft | 444 kts | 114° |
| 2026-05-07 15:35 | 53.96676 | 3.45011 | 37119 ft | 443 kts | 114° |
| 2026-05-07 15:36 | 53.94221 | 3.54617 | 37116 ft | 443 kts | 114° |
| 2026-05-07 15:36 | 53.91758 | 3.64214 | 37117 ft | 443 kts | 114° |
| 2026-05-07 15:37 | 53.89292 | 3.73785 | 37118 ft | 443 kts | 114° |
| 2026-05-07 15:37 | 53.86816 | 3.83355 | 37118 ft | 443 kts | 114° |
| 2026-05-07 15:38 | 53.84339 | 3.92907 | 37114 ft | 443 kts | 113° |
| 2026-05-07 15:38 | 53.82274 | 4.02743 | 37118 ft | 443 kts | 110° |
| 2026-05-07 15:39 | 53.80200 | 4.12561 | 37112 ft | 443 kts | 110° |
| 2026-05-07 15:39 | 53.78111 | 4.22357 | 37121 ft | 443 kts | 110° |
| 2026-05-07 15:40 | 53.76012 | 4.32147 | 37116 ft | 443 kts | 110° |
| 2026-05-07 15:40 | 53.73905 | 4.41931 | 37116 ft | 443 kts | 110° |
| 2026-05-07 15:41 | 53.71791 | 4.51697 | 37121 ft | 443 kts | 110° |
| 2026-05-07 15:41 | 53.69672 | 4.61440 | 37121 ft | 442 kts | 110° |
| 2026-05-07 15:42 | 53.67544 | 4.71180 | 37121 ft | 442 kts | 111° |
| 2026-05-07 15:42 | 53.65408 | 4.80910 | 37121 ft | 442 kts | 111° |
| 2026-05-07 15:43 | 53.63265 | 4.90626 | 37124 ft | 442 kts | 111° |
| 2026-05-07 15:43 | 53.61113 | 5.00335 | 37115 ft | 442 kts | 111° |
| 2026-05-07 15:44 | 53.58951 | 5.10043 | 37117 ft | 442 kts | 111° |
| 2026-05-07 15:44 | 53.56785 | 5.19730 | 37118 ft | 443 kts | 111° |
| 2026-05-07 15:45 | 53.54608 | 5.29420 | 37112 ft | 443 kts | 111° |
| 2026-05-07 15:45 | 53.52436 | 5.39040 | 37114 ft | 443 kts | 111° |
| 2026-05-07 15:46 | 53.49140 | 5.53555 | 37107 ft | 444 kts | 111° |
| 2026-05-07 15:47 | 53.46931 | 5.63227 | 37102 ft | 444 kts | 111° |
| 2026-05-07 15:47 | 53.44715 | 5.72891 | 37098 ft | 444 kts | 111° |
| 2026-05-07 15:48 | 53.42489 | 5.82547 | 37100 ft | 444 kts | 112° |
| 2026-05-07 15:48 | 53.40252 | 5.92211 | 37099 ft | 445 kts | 112° |
| 2026-05-07 15:49 | 53.38003 | 6.01879 | 37098 ft | 445 kts | 112° |
| 2026-05-07 15:49 | 53.36130 | 6.09902 | 37099 ft | 446 kts | 112° |
| 2026-05-07 15:50 | 53.33865 | 6.19562 | 37093 ft | 446 kts | 112° |
| 2026-05-07 15:50 | 53.31588 | 6.29230 | 37081 ft | 447 kts | 112° |
| 2026-05-07 15:51 | 53.29302 | 6.38894 | 37075 ft | 447 kts | 112° |
| 2026-05-07 15:51 | 53.27004 | 6.48562 | 37075 ft | 448 kts | 112° |
| 2026-05-07 15:52 | 53.24694 | 6.58240 | 37073 ft | 449 kts | 112° |
| 2026-05-07 15:52 | 53.22375 | 6.67909 | 37075 ft | 449 kts | 113° |
| 2026-05-07 15:53 | 53.20044 | 6.77586 | 37072 ft | 450 kts | 113° |
| 2026-05-07 15:53 | 53.17705 | 6.87256 | 37074 ft | 450 kts | 113° |
| 2026-05-07 15:54 | 53.15355 | 6.96925 | 37071 ft | 450 kts | 113° |
| 2026-05-07 15:54 | 53.12996 | 7.06588 | 37069 ft | 450 kts | 113° |
| 2026-05-07 15:55 | 53.10630 | 7.16241 | 37070 ft | 451 kts | 113° |
| 2026-05-07 15:55 | 53.08251 | 7.25899 | 37068 ft | 451 kts | 113° |
| 2026-05-07 15:56 | 53.05864 | 7.35550 | 37070 ft | 451 kts | 113° |
| 2026-05-07 15:56 | 53.03469 | 7.45191 | 37065 ft | 451 kts | 113° |
| 2026-05-07 15:57 | 53.01065 | 7.54829 | 37072 ft | 452 kts | 114° |
| 2026-05-07 15:57 | 52.98650 | 7.64465 | 37076 ft | 452 kts | 114° |
| 2026-05-07 15:58 | 52.96229 | 7.74083 | 37074 ft | 452 kts | 114° |
| 2026-05-07 15:58 | 52.93798 | 7.83701 | 37076 ft | 452 kts | 114° |
| 2026-05-07 15:59 | 52.91359 | 7.93310 | 37083 ft | 452 kts | 114° |
| 2026-05-07 15:59 | 52.88912 | 8.02908 | 37086 ft | 452 kts | 114° |
| 2026-05-07 16:00 | 52.86454 | 8.12507 | 37083 ft | 452 kts | 114° |
| 2026-05-07 16:00 | 52.83991 | 8.22088 | 37091 ft | 453 kts | 114° |
| 2026-05-07 16:01 | 52.81520 | 8.31653 | 37100 ft | 453 kts | 114° |
| 2026-05-07 16:01 | 52.79041 | 8.41215 | 37088 ft | 452 kts | 114° |
| 2026-05-07 16:02 | 52.76554 | 8.50764 | 37089 ft | 453 kts | 114° |
| 2026-05-07 16:02 | 52.74074 | 8.60244 | 37085 ft | 453 kts | 114° |
| 2026-05-07 16:03 | 52.71572 | 8.69771 | 37087 ft | 452 kts | 114° |
| 2026-05-07 16:03 | 52.69063 | 8.79283 | 37082 ft | 453 kts | 114° |
| 2026-05-07 16:04 | 52.66528 | 8.88855 | 37080 ft | 453 kts | 114° |
| 2026-05-07 16:04 | 52.64021 | 8.98282 | 37078 ft | 453 kts | 115° |
| 2026-05-07 16:05 | 52.61488 | 9.07766 | 37077 ft | 453 kts | 115° |
| 2026-05-07 16:05 | 52.58946 | 9.17245 | 37074 ft | 453 kts | 115° |
| 2026-05-07 16:06 | 52.56397 | 9.26710 | 37077 ft | 453 kts | 115° |
| 2026-05-07 16:06 | 52.53839 | 9.36172 | 37074 ft | 453 kts | 115° |
| 2026-05-07 16:07 | 52.51272 | 9.45625 | 37076 ft | 453 kts | 115° |
| 2026-05-07 16:07 | 52.48699 | 9.55066 | 37074 ft | 453 kts | 115° |
| 2026-05-07 16:08 | 52.46117 | 9.64495 | 37103 ft | 453 kts | 115° |
| 2026-05-07 16:08 | 52.43528 | 9.73919 | 37103 ft | 453 kts | 115° |
| 2026-05-07 16:09 | 52.40930 | 9.83330 | 37103 ft | 453 kts | 116° |
| 2026-05-07 16:09 | 52.38326 | 9.92729 | 37099 ft | 454 kts | 116° |
| 2026-05-07 16:10 | 52.35712 | 10.02126 | 37096 ft | 454 kts | 116° |
| 2026-05-07 16:10 | 52.33087 | 10.11524 | 37089 ft | 454 kts | 116° |
| 2026-05-07 16:11 | 52.30460 | 10.20894 | 37089 ft | 453 kts | 116° |
| 2026-05-07 16:11 | 52.27826 | 10.30262 | 37090 ft | 454 kts | 116° |
| 2026-05-07 16:12 | 52.25185 | 10.39619 | 37099 ft | 454 kts | 116° |
| 2026-05-07 16:12 | 52.22550 | 10.48919 | 37100 ft | 454 kts | 116° |
| 2026-05-07 16:13 | 52.19893 | 10.58257 | 37100 ft | 454 kts | 116° |
| 2026-05-07 16:13 | 52.17226 | 10.67598 | 37101 ft | 454 kts | 116° |
| 2026-05-07 16:14 | 52.14555 | 10.76921 | 37089 ft | 454 kts | 117° |
| 2026-05-07 16:14 | 52.11585 | 10.85935 | 37104 ft | 451 kts | 126° |
| 2026-05-07 16:15 | 52.08209 | 10.94558 | 37082 ft | 452 kts | 124° |
| 2026-05-07 16:15 | 52.04869 | 11.03233 | 37079 ft | 452 kts | 124° |
| 2026-05-07 16:16 | 52.01531 | 11.11889 | 37081 ft | 452 kts | 124° |
| 2026-05-07 16:16 | 51.98188 | 11.20536 | 37076 ft | 452 kts | 124° |
| 2026-05-07 16:17 | 51.94836 | 11.29174 | 37077 ft | 453 kts | 124° |
| 2026-05-07 16:17 | 51.91476 | 11.37802 | 37079 ft | 452 kts | 124° |
| 2026-05-07 16:18 | 51.88114 | 11.46408 | 37075 ft | 452 kts | 124° |
| 2026-05-07 16:18 | 51.84745 | 11.55002 | 37069 ft | 452 kts | 124° |
| 2026-05-07 16:19 | 51.81368 | 11.63588 | 37077 ft | 452 kts | 125° |
| 2026-05-07 16:19 | 51.77984 | 11.72161 | 37060 ft | 452 kts | 125° |
| 2026-05-07 16:20 | 51.74598 | 11.80713 | 37077 ft | 452 kts | 125° |
| 2026-05-07 16:20 | 51.71205 | 11.89253 | 37064 ft | 452 kts | 125° |
| 2026-05-07 16:21 | 51.67808 | 11.97777 | 37062 ft | 452 kts | 125° |
| 2026-05-07 16:21 | 51.64402 | 12.06294 | 37070 ft | 452 kts | 125° |
| 2026-05-07 16:22 | 51.60993 | 12.14789 | 37065 ft | 452 kts | 126° |
| 2026-05-07 16:22 | 51.57577 | 12.23273 | 37069 ft | 452 kts | 126° |
| 2026-05-07 16:23 | 51.54179 | 12.31689 | 37085 ft | 452 kts | 126° |
| 2026-05-07 16:23 | 51.50757 | 12.40132 | 37067 ft | 451 kts | 126° |
| 2026-05-07 16:24 | 51.47327 | 12.48569 | 37068 ft | 451 kts | 126° |
| 2026-05-07 16:24 | 51.43895 | 12.56983 | 37060 ft | 451 kts | 126° |
| 2026-05-07 16:25 | 51.40460 | 12.65377 | 37056 ft | 451 kts | 127° |
| 2026-05-07 16:25 | 51.37015 | 12.73769 | 37054 ft | 451 kts | 127° |
| 2026-05-07 16:26 | 51.33563 | 12.82151 | 37048 ft | 450 kts | 127° |
| 2026-05-07 16:26 | 51.30113 | 12.90500 | 37042 ft | 450 kts | 127° |
| 2026-05-07 16:27 | 51.26651 | 12.98851 | 37046 ft | 451 kts | 127° |
| 2026-05-07 16:27 | 51.23184 | 13.07187 | 37038 ft | 451 kts | 127° |
| 2026-05-07 16:28 | 51.19705 | 13.15525 | 37042 ft | 452 kts | 127° |
| 2026-05-07 16:28 | 51.16220 | 13.23853 | 37040 ft | 452 kts | 127° |
| 2026-05-07 16:29 | 51.12725 | 13.32176 | 37030 ft | 453 kts | 127° |
| 2026-05-07 16:29 | 51.09221 | 13.40494 | 37034 ft | 452 kts | 128° |
| 2026-05-07 16:30 | 51.05708 | 13.48808 | 37040 ft | 453 kts | 128° |
| 2026-05-07 16:30 | 51.02195 | 13.57095 | 37040 ft | 452 kts | 128° |
| 2026-05-07 16:31 | 50.98670 | 13.65382 | 37040 ft | 452 kts | 128° |
| 2026-05-07 16:31 | 50.95146 | 13.73645 | 37047 ft | 452 kts | 128° |
| 2026-05-07 16:32 | 50.91643 | 13.81840 | 37030 ft | 452 kts | 128° |
| 2026-05-07 16:32 | 50.88109 | 13.90077 | 37026 ft | 452 kts | 128° |
| 2026-05-07 16:33 | 50.84571 | 13.98289 | 37019 ft | 451 kts | 130° |
| 2026-05-07 16:33 | 50.82496 | 14.01921 | 37010 ft | 441 kts | 143° |
| 2026-05-07 16:33 | 50.80215 | 14.05180 | 37002 ft | 444 kts | 141° |
| 2026-05-07 16:34 | 50.75682 | 14.11800 | 37003 ft | 443 kts | 142° |
| 2026-05-07 16:34 | 50.71130 | 14.18366 | 36996 ft | 443 kts | 142° |
| 2026-05-07 16:35 | 50.66581 | 14.24902 | 36992 ft | 442 kts | 142° |
| 2026-05-07 16:35 | 50.62030 | 14.31426 | 36984 ft | 442 kts | 142° |
| 2026-05-07 16:36 | 50.57478 | 14.37930 | 36983 ft | 442 kts | 142° |
| 2026-05-07 16:36 | 50.53695 | 14.43324 | 36980 ft | 441 kts | 142° |
| 2026-05-07 16:37 | 50.49143 | 14.49797 | 36975 ft | 441 kts | 143° |
| 2026-05-07 16:37 | 50.44770 | 14.56567 | 36981 ft | 444 kts | 136° |
| 2026-05-07 16:38 | 50.40636 | 14.63769 | 36963 ft | 444 kts | 137° |
| 2026-05-07 16:38 | 50.36455 | 14.70898 | 36966 ft | 444 kts | 137° |
| 2026-05-07 16:39 | 50.32271 | 14.77998 | 36959 ft | 444 kts | 138° |
| 2026-05-07 16:39 | 50.28077 | 14.85092 | 36965 ft | 444 kts | 138° |
| 2026-05-07 16:40 | 50.23880 | 14.92170 | 36957 ft | 444 kts | 138° |
| 2026-05-07 16:40 | 50.19685 | 14.99227 | 36960 ft | 443 kts | 138° |
| 2026-05-07 16:41 | 50.15485 | 15.06273 | 36956 ft | 443 kts | 138° |
| 2026-05-07 16:41 | 50.11279 | 15.13310 | 36961 ft | 443 kts | 139° |
| 2026-05-07 16:42 | 50.07071 | 15.20329 | 36956 ft | 443 kts | 139° |
| 2026-05-07 16:42 | 50.02856 | 15.27341 | 36956 ft | 444 kts | 139° |
| 2026-05-07 16:43 | 49.98638 | 15.34340 | 36948 ft | 444 kts | 139° |
| 2026-05-07 16:43 | 49.94413 | 15.41330 | 36944 ft | 444 kts | 139° |
| 2026-05-07 16:44 | 49.90207 | 15.48270 | 36940 ft | 444 kts | 139° |
| 2026-05-07 16:44 | 49.85970 | 15.55241 | 36934 ft | 444 kts | 139° |
| 2026-05-07 16:45 | 49.81723 | 15.62210 | 36943 ft | 445 kts | 139° |
| 2026-05-07 16:45 | 49.77476 | 15.69161 | 36943 ft | 445 kts | 140° |
| 2026-05-07 16:46 | 49.73217 | 15.76113 | 36946 ft | 445 kts | 140° |
| 2026-05-07 16:46 | 49.68948 | 15.83060 | 36950 ft | 445 kts | 140° |
| 2026-05-07 16:47 | 49.64724 | 15.89917 | 36936 ft | 434 kts | 140° |
| 2026-05-07 16:47 | 49.60582 | 15.96621 | 36942 ft | 430 kts | 140° |
| 2026-05-07 16:48 | 49.56450 | 16.03292 | 36946 ft | 431 kts | 140° |
| 2026-05-07 16:48 | 49.52308 | 16.09963 | 36938 ft | 431 kts | 140° |
| 2026-05-07 16:49 | 49.48161 | 16.16624 | 36943 ft | 431 kts | 140° |
| 2026-05-07 16:49 | 49.44007 | 16.23278 | 36944 ft | 431 kts | 140° |
| 2026-05-07 16:50 | 49.39845 | 16.29928 | 36944 ft | 432 kts | 140° |
| 2026-05-07 16:50 | 49.35680 | 16.36565 | 36946 ft | 432 kts | 140° |
| 2026-05-07 16:51 | 49.31503 | 16.43204 | 36927 ft | 432 kts | 140° |
| 2026-05-07 16:51 | 49.27326 | 16.49826 | 36933 ft | 432 kts | 140° |
| 2026-05-07 16:52 | 49.23146 | 16.56440 | 36933 ft | 433 kts | 140° |
| 2026-05-07 16:52 | 49.18956 | 16.63052 | 36937 ft | 433 kts | 140° |
| 2026-05-07 16:53 | 49.14774 | 16.69669 | 36935 ft | 433 kts | 140° |
| 2026-05-07 16:53 | 49.10626 | 16.76360 | 36938 ft | 434 kts | 140° |
| 2026-05-07 16:54 | 49.06502 | 16.82992 | 36931 ft | 434 kts | 140° |
| 2026-05-07 16:54 | 49.02343 | 16.89661 | 36937 ft | 435 kts | 140° |
| 2026-05-07 16:55 | 48.98173 | 16.96332 | 36934 ft | 435 kts | 140° |
| 2026-05-07 16:55 | 48.93998 | 17.02993 | 36938 ft | 435 kts | 140° |
| 2026-05-07 16:56 | 48.89813 | 17.09654 | 36940 ft | 436 kts | 140° |
| 2026-05-07 16:56 | 48.83526 | 17.19653 | 36940 ft | 436 kts | 140° |
| 2026-05-07 16:57 | 48.79339 | 17.26316 | 36944 ft | 437 kts | 140° |
| 2026-05-07 16:57 | 48.75142 | 17.32977 | 36947 ft | 437 kts | 140° |
| 2026-05-07 16:58 | 48.70941 | 17.39629 | 36953 ft | 437 kts | 140° |
| 2026-05-07 16:58 | 48.66731 | 17.46280 | 36956 ft | 437 kts | 140° |
| 2026-05-07 16:59 | 48.62522 | 17.52910 | 36958 ft | 437 kts | 140° |
| 2026-05-07 16:59 | 48.58250 | 17.59432 | 36955 ft | 436 kts | 141° |
| 2026-05-07 17:00 | 48.55954 | 17.62335 | 36932 ft | 424 kts | 155° |
| 2026-05-07 17:00 | 48.53320 | 17.64159 | 36973 ft | 413 kts | 166° |
| 2026-05-07 17:00 | 48.47902 | 17.67193 | 36960 ft | 416 kts | 166° |
| 2026-05-07 17:01 | 48.42460 | 17.70125 | 36960 ft | 415 kts | 166° |
| 2026-05-07 17:01 | 48.37013 | 17.73008 | 36953 ft | 415 kts | 166° |
| 2026-05-07 17:02 | 48.31547 | 17.75686 | 36937 ft | 407 kts | 177° |
| 2026-05-07 17:02 | 48.28772 | 17.75805 | 36954 ft | 394 kts | 192° |
| 2026-05-07 17:02 | 48.26147 | 17.74841 | 36956 ft | 386 kts | 206° |
| 2026-05-07 17:03 | 48.23813 | 17.72937 | 36952 ft | 381 kts | 220° |
| 2026-05-07 17:03 | 48.21970 | 17.70140 | 36953 ft | 377 kts | 237° |
| 2026-05-07 17:03 | 48.20855 | 17.66610 | 36951 ft | 377 kts | 255° |
| 2026-05-07 17:03 | 48.20632 | 17.62683 | 36956 ft | 383 kts | 274° |
| 2026-05-07 17:04 | 48.21374 | 17.58815 | 36970 ft | 393 kts | 290° |
| 2026-05-07 17:04 | 48.22463 | 17.55112 | 36944 ft | 392 kts | 281° |
| 2026-05-07 17:04 | 48.22802 | 17.51146 | 36961 ft | 380 kts | 264° |
| 2026-05-07 17:04 | 48.22373 | 17.47270 | 36930 ft | 376 kts | 246° |
| 2026-05-07 17:05 | 48.20941 | 17.44066 | 36930 ft | 372 kts | 222° |
| 2026-05-07 17:05 | 48.18684 | 17.42149 | 36942 ft | 381 kts | 198° |
| 2026-05-07 17:05 | 48.16014 | 17.41872 | 36953 ft | 395 kts | 176° |
| 2026-05-07 17:05 | 48.13379 | 17.43255 | 36945 ft | 413 kts | 153° |
| 2026-05-07 17:06 | 48.11249 | 17.46226 | 36950 ft | 430 kts | 130° |
| 2026-05-07 17:06 | 48.09614 | 17.50021 | 36962 ft | 435 kts | 131° |
| 2026-05-07 17:06 | 48.05594 | 17.56668 | 36951 ft | 432 kts | 139° |
| 2026-05-07 17:07 | 48.01312 | 17.62618 | 36944 ft | 398 kts | 157° |
| 2026-05-07 17:07 | 47.98844 | 17.64213 | 36981 ft | 380 kts | 171° |
| 2026-05-07 17:07 | 47.96293 | 17.64852 | 36936 ft | 367 kts | 184° |
| 2026-05-07 17:08 | 47.93806 | 17.64499 | 36938 ft | 354 kts | 204° |
| 2026-05-07 17:08 | 47.91755 | 17.62666 | 36926 ft | 341 kts | 230° |
| 2026-05-07 17:08 | 47.90581 | 17.59650 | 36927 ft | 341 kts | 255° |
| 2026-05-07 17:08 | 47.90516 | 17.56110 | 36932 ft | 350 kts | 279° |
| 2026-05-07 17:09 | 47.91517 | 17.52751 | 36943 ft | 364 kts | 302° |
| 2026-05-07 17:09 | 47.93361 | 17.50124 | 36954 ft | 374 kts | 322° |
| 2026-05-07 17:09 | 47.95765 | 17.48507 | 36970 ft | 385 kts | 337° |
| 2026-05-07 17:09 | 47.98317 | 17.47262 | 36965 ft | 385 kts | 329° |
| 2026-05-07 17:10 | 48.00610 | 17.45328 | 36952 ft | 374 kts | 315° |
| 2026-05-07 17:10 | 48.02589 | 17.42846 | 36984 ft | 371 kts | 312° |
| 2026-05-07 17:10 | 48.06357 | 17.37559 | 36982 ft | 371 kts | 309° |
| 2026-05-07 17:11 | 48.09992 | 17.32095 | 36966 ft | 370 kts | 308° |
| 2026-05-07 17:11 | 48.13580 | 17.26581 | 36969 ft | 370 kts | 307° |
| 2026-05-07 17:12 | 48.17165 | 17.21026 | 36973 ft | 374 kts | 307° |
| 2026-05-07 17:12 | 48.19082 | 17.18351 | 36946 ft | 380 kts | 319° |
| 2026-05-07 17:12 | 48.21471 | 17.16594 | 36927 ft | 389 kts | 339° |
| 2026-05-07 17:13 | 48.24172 | 17.16045 | 36966 ft | 399 kts | 358° |
| 2026-05-07 17:13 | 48.26942 | 17.16745 | 36964 ft | 411 kts | 17° |
| 2026-05-07 17:13 | 48.29489 | 17.18726 | 36953 ft | 417 kts | 37° |
| 2026-05-07 17:13 | 48.31479 | 17.21875 | 36952 ft | 418 kts | 59° |
| 2026-05-07 17:14 | 48.32643 | 17.25832 | 36965 ft | 414 kts | 80° |
| 2026-05-07 17:14 | 48.32908 | 17.30098 | 36966 ft | 408 kts | 100° |
| 2026-05-07 17:14 | 48.32284 | 17.34184 | 36959 ft | 398 kts | 120° |
| 2026-05-07 17:14 | 48.30882 | 17.37667 | 36951 ft | 385 kts | 139° |
| 2026-05-07 17:15 | 48.28951 | 17.40263 | 36971 ft | 375 kts | 151° |
| 2026-05-07 17:15 | 48.26865 | 17.42749 | 36962 ft | 382 kts | 146° |
| 2026-05-07 17:15 | 48.22838 | 17.47973 | 36967 ft | 383 kts | 145° |
| 2026-05-07 17:16 | 48.18929 | 17.53365 | 36944 ft | 392 kts | 131° |
| 2026-05-07 17:16 | 48.17732 | 17.57052 | 36899 ft | 401 kts | 105° |
| 2026-05-07 17:16 | 48.17442 | 17.61222 | 36999 ft | 404 kts | 96° |
| 2026-05-07 17:17 | 48.17190 | 17.69719 | 36964 ft | 413 kts | 96° |
| 2026-05-07 17:17 | 48.16982 | 17.78341 | 36952 ft | 416 kts | 90° |
| 2026-05-07 17:18 | 48.17366 | 17.82644 | 36951 ft | 418 kts | 77° |
| 2026-05-07 17:18 | 48.18355 | 17.86749 | 36950 ft | 420 kts | 62° |
| 2026-05-07 17:18 | 48.19958 | 17.90387 | 36957 ft | 419 kts | 47° |
| 2026-05-07 17:18 | 48.22080 | 17.93341 | 36957 ft | 416 kts | 32° |
| 2026-05-07 17:19 | 48.24592 | 17.95439 | 36955 ft | 411 kts | 17° |
| 2026-05-07 17:19 | 48.27318 | 17.96548 | 36957 ft | 404 kts | 1° |
| 2026-05-07 17:19 | 48.30089 | 17.96621 | 36959 ft | 394 kts | 346° |
| 2026-05-07 17:19 | 48.32714 | 17.95675 | 36961 ft | 384 kts | 331° |
| 2026-05-07 17:20 | 48.35025 | 17.93797 | 36964 ft | 373 kts | 316° |
| 2026-05-07 17:20 | 48.36864 | 17.91144 | 36954 ft | 362 kts | 300° |
| 2026-05-07 17:20 | 48.38114 | 17.87936 | 36961 ft | 352 kts | 285° |
| 2026-05-07 17:20 | 48.38701 | 17.84422 | 36956 ft | 344 kts | 270° |
| 2026-05-07 17:21 | 48.38617 | 17.80869 | 36967 ft | 338 kts | 256° |
| 2026-05-07 17:21 | 48.37915 | 17.77518 | 36963 ft | 336 kts | 242° |
| 2026-05-07 17:21 | 48.36659 | 17.74575 | 36961 ft | 336 kts | 229° |
| 2026-05-07 17:21 | 48.34936 | 17.72203 | 36960 ft | 338 kts | 215° |
| 2026-05-07 17:22 | 48.32802 | 17.70713 | 36943 ft | 343 kts | 197° |
| 2026-05-07 17:22 | 48.30412 | 17.70341 | 36959 ft | 352 kts | 179° |
| 2026-05-07 17:22 | 48.28011 | 17.71267 | 36950 ft | 365 kts | 159° |
| 2026-05-07 17:22 | 48.25890 | 17.73451 | 36946 ft | 379 kts | 141° |
| 2026-05-07 17:23 | 48.24187 | 17.76537 | 36978 ft | 390 kts | 128° |
| 2026-05-07 17:23 | 48.22937 | 17.80202 | 36949 ft | 401 kts | 113° |
| 2026-05-07 17:23 | 48.22315 | 17.84308 | 36944 ft | 408 kts | 98° |
| 2026-05-07 17:23 | 48.22379 | 17.88579 | 36957 ft | 414 kts | 83° |
| 2026-05-07 17:24 | 48.24514 | 17.96532 | 36953 ft | 419 kts | 52° |
| 2026-05-07 17:24 | 48.28046 | 18.01470 | 36952 ft | 414 kts | 27° |
| 2026-05-07 17:25 | 48.30648 | 18.03250 | 36961 ft | 409 kts | 12° |
| 2026-05-07 17:25 | 48.34313 | 18.04042 | 36957 ft | 398 kts | 352° |
| 2026-05-07 17:25 | 48.36159 | 18.03745 | 36957 ft | 392 kts | 341° |
| 2026-05-07 17:25 | 48.38705 | 18.02475 | 36961 ft | 381 kts | 326° |
| 2026-05-07 17:26 | 48.40885 | 18.00322 | 36968 ft | 370 kts | 311° |
| 2026-05-07 17:26 | 48.42557 | 17.97459 | 36959 ft | 360 kts | 295° |
| 2026-05-07 17:26 | 48.43600 | 17.94161 | 36960 ft | 350 kts | 281° |
| 2026-05-07 17:26 | 48.43986 | 17.90602 | 36964 ft | 342 kts | 266° |
| 2026-05-07 17:27 | 48.43763 | 17.87056 | 36971 ft | 339 kts | 254° |
| 2026-05-07 17:27 | 48.43040 | 17.83700 | 36958 ft | 337 kts | 243° |
| 2026-05-07 17:27 | 48.41852 | 17.80667 | 36963 ft | 336 kts | 232° |
| 2026-05-07 17:27 | 48.40257 | 17.78096 | 36964 ft | 337 kts | 221° |
| 2026-05-07 17:28 | 48.38324 | 17.76095 | 36965 ft | 340 kts | 210° |
| 2026-05-07 17:28 | 48.36127 | 17.74739 | 36962 ft | 343 kts | 199° |
| 2026-05-07 17:28 | 48.31449 | 17.73055 | 36963 ft | 347 kts | 197° |
| 2026-05-07 17:29 | 48.26746 | 17.71403 | 36960 ft | 347 kts | 198° |
| 2026-05-07 17:29 | 48.22082 | 17.69579 | 36951 ft | 343 kts | 207° |
| 2026-05-07 17:30 | 48.20109 | 17.67687 | 36930 ft | 334 kts | 227° |
| 2026-05-07 17:30 | 48.18610 | 17.65054 | 36985 ft | 334 kts | 232° |
| 2026-05-07 17:30 | 48.17377 | 17.62097 | 36937 ft | 337 kts | 250° |
| 2026-05-07 17:30 | 48.17050 | 17.58645 | 36934 ft | 340 kts | 274° |
| 2026-05-07 17:31 | 48.17785 | 17.55247 | 36957 ft | 352 kts | 297° |
| 2026-05-07 17:31 | 48.19498 | 17.52542 | 36952 ft | 370 kts | 323° |
| 2026-05-07 17:31 | 48.21950 | 17.51183 | 36954 ft | 388 kts | 350° |
| 2026-05-07 17:31 | 48.24663 | 17.51545 | 36951 ft | 400 kts | 17° |
| 2026-05-07 17:32 | 48.27078 | 17.53623 | 36952 ft | 405 kts | 44° |
| 2026-05-07 17:32 | 48.28709 | 17.57031 | 36956 ft | 403 kts | 71° |
| 2026-05-07 17:32 | 48.29239 | 17.61080 | 36955 ft | 393 kts | 99° |
| 2026-05-07 17:32 | 48.28595 | 17.64943 | 36947 ft | 375 kts | 126° |
| 2026-05-07 17:33 | 48.25618 | 17.71242 | 36968 ft | 375 kts | 130° |
| 2026-05-07 17:33 | 48.23999 | 17.74271 | 36959 ft | 370 kts | 142° |
| 2026-05-07 17:33 | 48.21946 | 17.76441 | 36929 ft | 355 kts | 166° |
| 2026-05-07 17:34 | 48.19595 | 17.77096 | 36927 ft | 338 kts | 192° |
| 2026-05-07 17:34 | 48.17434 | 17.76046 | 36932 ft | 325 kts | 219° |
| 2026-05-07 17:34 | 48.15960 | 17.73571 | 36933 ft | 322 kts | 246° |
| 2026-05-07 17:34 | 48.15468 | 17.70306 | 36949 ft | 327 kts | 268° |
| 2026-05-07 17:35 | 48.15897 | 17.66924 | 36963 ft | 339 kts | 288° |
| 2026-05-07 17:35 | 48.17136 | 17.63864 | 36975 ft | 351 kts | 306° |
| 2026-05-07 17:35 | 48.19052 | 17.61487 | 36945 ft | 368 kts | 327° |
| 2026-05-07 17:35 | 48.21524 | 17.60270 | 36950 ft | 384 kts | 349° |
| 2026-05-07 17:36 | 48.24220 | 17.60513 | 36949 ft | 396 kts | 14° |
| 2026-05-07 17:36 | 48.26687 | 17.62386 | 36949 ft | 403 kts | 41° |
| 2026-05-07 17:36 | 48.28430 | 17.65646 | 36944 ft | 402 kts | 68° |
| 2026-05-07 17:36 | 48.29134 | 17.69645 | 36952 ft | 394 kts | 92° |
| 2026-05-07 17:37 | 48.28882 | 17.73670 | 36960 ft | 385 kts | 112° |
| 2026-05-07 17:37 | 48.27795 | 17.77188 | 36959 ft | 371 kts | 135° |
| 2026-05-07 17:37 | 48.25939 | 17.79793 | 36953 ft | 355 kts | 157° |
| 2026-05-07 17:37 | 48.23690 | 17.81033 | 36958 ft | 340 kts | 180° |
| 2026-05-07 17:38 | 48.21413 | 17.80883 | 36960 ft | 329 kts | 200° |
| 2026-05-07 17:38 | 48.19348 | 17.79440 | 36960 ft | 323 kts | 220° |
| 2026-05-07 17:38 | 48.17827 | 17.77005 | 36962 ft | 322 kts | 239° |
| 2026-05-07 17:38 | 48.16954 | 17.73953 | 36967 ft | 327 kts | 255° |
| 2026-05-07 17:39 | 48.16796 | 17.70535 | 36966 ft | 335 kts | 272° |
| 2026-05-07 17:39 | 48.17042 | 17.67049 | 36982 ft | 338 kts | 270° |
| 2026-05-07 17:39 | 48.18064 | 17.60088 | 36935 ft | 358 kts | 298° |
| 2026-05-07 17:40 | 48.19818 | 17.57389 | 36943 ft | 372 kts | 323° |
| 2026-05-07 17:40 | 48.22269 | 17.56007 | 36945 ft | 388 kts | 349° |
| 2026-05-07 17:40 | 48.24979 | 17.56335 | 36945 ft | 399 kts | 17° |
| 2026-05-07 17:40 | 48.27392 | 17.58379 | 36947 ft | 403 kts | 44° |
| 2026-05-07 17:41 | 48.29028 | 17.61761 | 36942 ft | 401 kts | 72° |
| 2026-05-07 17:41 | 48.29557 | 17.65781 | 36943 ft | 390 kts | 99° |
| 2026-05-07 17:41 | 48.28945 | 17.69636 | 36958 ft | 375 kts | 123° |
| 2026-05-07 17:41 | 48.27562 | 17.72868 | 36983 ft | 366 kts | 136° |
| 2026-05-07 17:42 | 48.25777 | 17.75528 | 36949 ft | 358 kts | 153° |
| 2026-05-07 17:42 | 48.23571 | 17.77005 | 36928 ft | 342 kts | 176° |
| 2026-05-07 17:42 | 48.21257 | 17.76993 | 36957 ft | 329 kts | 199° |
| 2026-05-07 17:42 | 48.19198 | 17.75638 | 36962 ft | 323 kts | 220° |
| 2026-05-07 17:43 | 48.17713 | 17.73167 | 36958 ft | 322 kts | 243° |
| 2026-05-07 17:43 | 48.17052 | 17.69963 | 36963 ft | 327 kts | 263° |
| 2026-05-07 17:43 | 48.17363 | 17.63045 | 36973 ft | 339 kts | 275° |
| 2026-05-07 17:44 | 48.18138 | 17.59663 | 36930 ft | 353 kts | 298° |
| 2026-05-07 17:44 | 48.19883 | 17.57001 | 36934 ft | 370 kts | 324° |
| 2026-05-07 17:44 | 48.22342 | 17.55690 | 36939 ft | 385 kts | 351° |
| 2026-05-07 17:44 | 48.25023 | 17.56110 | 36938 ft | 396 kts | 19° |
| 2026-05-07 17:45 | 48.27389 | 17.58234 | 36938 ft | 401 kts | 46° |
| 2026-05-07 17:45 | 48.28951 | 17.61655 | 36938 ft | 397 kts | 73° |
| 2026-05-07 17:45 | 48.29399 | 17.65661 | 36937 ft | 385 kts | 101° |
| 2026-05-07 17:45 | 48.28708 | 17.69428 | 36951 ft | 369 kts | 126° |
| 2026-05-07 17:46 | 48.25561 | 17.75272 | 36953 ft | 356 kts | 151° |
| 2026-05-07 17:46 | 48.23405 | 17.76890 | 36924 ft | 340 kts | 175° |
| 2026-05-07 17:46 | 48.21108 | 17.76979 | 36952 ft | 326 kts | 198° |
| 2026-05-07 17:47 | 48.19065 | 17.75676 | 36957 ft | 319 kts | 219° |
| 2026-05-07 17:47 | 48.17586 | 17.73253 | 36952 ft | 318 kts | 242° |
| 2026-05-07 17:47 | 48.16926 | 17.70087 | 36969 ft | 324 kts | 263° |
| 2026-05-07 17:47 | 48.17066 | 17.66691 | 36982 ft | 331 kts | 274° |
| 2026-05-07 17:48 | 48.17844 | 17.59846 | 36933 ft | 346 kts | 292° |
| 2026-05-07 17:48 | 48.19354 | 17.56975 | 36931 ft | 363 kts | 319° |
| 2026-05-07 17:48 | 48.21671 | 17.55349 | 36936 ft | 379 kts | 346° |
| 2026-05-07 17:49 | 48.24338 | 17.55407 | 36939 ft | 392 kts | 13° |
| 2026-05-07 17:49 | 48.26791 | 17.57209 | 36938 ft | 398 kts | 41° |
| 2026-05-07 17:49 | 48.28517 | 17.60411 | 36940 ft | 395 kts | 69° |
| 2026-05-07 17:49 | 48.29160 | 17.64277 | 36937 ft | 384 kts | 96° |
| 2026-05-07 17:50 | 48.28649 | 17.68087 | 36944 ft | 367 kts | 123° |
| 2026-05-07 17:50 | 48.27298 | 17.71244 | 36992 ft | 357 kts | 135° |
| 2026-05-07 17:50 | 48.23726 | 17.76295 | 36923 ft | 344 kts | 164° |
| 2026-05-07 17:51 | 48.21496 | 17.76997 | 36921 ft | 326 kts | 190° |
| 2026-05-07 17:51 | 48.19369 | 17.76114 | 36936 ft | 316 kts | 214° |
| 2026-05-07 17:51 | 48.17769 | 17.73939 | 36939 ft | 312 kts | 238° |
| 2026-05-07 17:51 | 48.16985 | 17.70917 | 36949 ft | 317 kts | 260° |
| 2026-05-07 17:52 | 48.17036 | 17.67593 | 36979 ft | 324 kts | 273° |
| 2026-05-07 17:52 | 48.17257 | 17.64239 | 36988 ft | 325 kts | 269° |
| 2026-05-07 17:52 | 48.17631 | 17.60868 | 36938 ft | 336 kts | 287° |
| 2026-05-07 17:52 | 48.18912 | 17.57887 | 36928 ft | 352 kts | 313° |
| 2026-05-07 17:53 | 48.21062 | 17.56010 | 36933 ft | 369 kts | 341° |
| 2026-05-07 17:53 | 48.23646 | 17.55766 | 36935 ft | 381 kts | 9° |
| 2026-05-07 17:53 | 48.26102 | 17.57274 | 36932 ft | 387 kts | 37° |
| 2026-05-07 17:53 | 48.27894 | 17.60243 | 36933 ft | 384 kts | 66° |
| 2026-05-07 17:54 | 48.28629 | 17.63994 | 36930 ft | 371 kts | 95° |
| 2026-05-07 17:54 | 48.28191 | 17.67684 | 36934 ft | 352 kts | 123° |
| 2026-05-07 17:54 | 48.26901 | 17.70693 | 36984 ft | 339 kts | 136° |
| 2026-05-07 17:54 | 48.25350 | 17.73346 | 36998 ft | 338 kts | 141° |
| 2026-05-07 17:55 | 48.23623 | 17.75700 | 36951 ft | 332 kts | 156° |
| 2026-05-07 17:55 | 48.21546 | 17.76882 | 36916 ft | 313 kts | 182° |
| 2026-05-07 17:55 | 48.19463 | 17.76496 | 36930 ft | 298 kts | 208° |
| 2026-05-07 17:55 | 48.17824 | 17.74723 | 36928 ft | 290 kts | 233° |
| 2026-05-07 17:56 | 48.16953 | 17.72031 | 36938 ft | 291 kts | 258° |
| 2026-05-07 17:56 | 48.16942 | 17.68988 | 36960 ft | 296 kts | 274° |
| 2026-05-07 17:56 | 48.17194 | 17.65940 | 36994 ft | 294 kts | 267° |
| 2026-05-07 17:56 | 48.17350 | 17.62874 | 36965 ft | 299 kts | 278° |
| 2026-05-07 17:57 | 48.18192 | 17.59989 | 36895 ft | 313 kts | 304° |
| 2026-05-07 17:57 | 48.19244 | 17.58480 | 36869 ft | 322 kts | 322° |
| 2026-05-07 17:57 | 48.22152 | 17.56863 | 36217 ft | 354 kts | 347° |
| 2026-05-07 17:57 | 48.24718 | 17.56705 | 34995 ft | 385 kts | 1° |
| 2026-05-07 17:58 | 48.27422 | 17.57331 | 34280 ft | 398 kts | 11° |
| 2026-05-07 17:58 | 48.30011 | 17.58536 | 34386 ft | 378 kts | 19° |
| 2026-05-07 17:58 | 48.32339 | 17.60042 | 34638 ft | 353 kts | 25° |
| 2026-05-07 17:58 | 48.34503 | 17.61719 | 34266 ft | 352 kts | 28° |
| 2026-05-07 17:59 | 48.36693 | 17.63579 | 33187 ft | 372 kts | 30° |
| 2026-05-07 17:59 | 48.38977 | 17.65569 | 32331 ft | 384 kts | 30° |
| 2026-05-07 17:59 | 48.41262 | 17.67511 | 32287 ft | 367 kts | 28° |
| 2026-05-07 17:59 | 48.43449 | 17.69250 | 32444 ft | 346 kts | 26° |
| 2026-05-07 18:00 | 48.45607 | 17.70800 | 32002 ft | 345 kts | 23° |
| 2026-05-07 18:00 | 48.47872 | 17.72227 | 31057 ft | 362 kts | 20° |
| 2026-05-07 18:00 | 48.50292 | 17.73504 | 30375 ft | 371 kts | 16° |
| 2026-05-07 18:00 | 48.52738 | 17.74508 | 30305 ft | 355 kts | 11° |
| 2026-05-07 18:01 | 48.55097 | 17.75181 | 30320 ft | 338 kts | 5° |
| 2026-05-07 18:01 | 48.57425 | 17.75542 | 29829 ft | 338 kts | 359° |
| 2026-05-07 18:01 | 48.59812 | 17.75590 | 28952 ft | 349 kts | 354° |
| 2026-05-07 18:01 | 48.62234 | 17.75290 | 28486 ft | 345 kts | 347° |
| 2026-05-07 18:02 | 48.66665 | 17.73752 | 28275 ft | 314 kts | 334° |
| 2026-05-07 18:02 | 48.68676 | 17.72545 | 27602 ft | 318 kts | 328° |
| 2026-05-07 18:02 | 48.70671 | 17.70944 | 26953 ft | 321 kts | 321° |
| 2026-05-07 18:03 | 48.72482 | 17.69064 | 26748 ft | 307 kts | 314° |
| 2026-05-07 18:03 | 48.74044 | 17.67008 | 26655 ft | 290 kts | 306° |
| 2026-05-07 18:03 | 48.75354 | 17.64798 | 26232 ft | 285 kts | 298° |
| 2026-05-07 18:03 | 48.76491 | 17.62275 | 25597 ft | 288 kts | 291° |
| 2026-05-07 18:04 | 48.77380 | 17.59620 | 25220 ft | 281 kts | 284° |
| 2026-05-07 18:04 | 48.78004 | 17.56905 | 25081 ft | 265 kts | 275° |
| 2026-05-07 18:04 | 48.78347 | 17.54235 | 24814 ft | 254 kts | 267° |
| 2026-05-07 18:04 | 48.78421 | 17.51565 | 24307 ft | 254 kts | 259° |
| 2026-05-07 18:05 | 48.78222 | 17.48902 | 23831 ft | 253 kts | 251° |
| 2026-05-07 18:05 | 48.77768 | 17.46368 | 23569 ft | 244 kts | 244° |
| 2026-05-07 18:05 | 48.77098 | 17.44069 | 23345 ft | 233 kts | 236° |
| 2026-05-07 18:05 | 48.76228 | 17.42025 | 22903 ft | 231 kts | 228° |
| 2026-05-07 18:06 | 48.75149 | 17.40196 | 22324 ft | 235 kts | 221° |
| 2026-05-07 18:06 | 48.73889 | 17.38628 | 21921 ft | 233 kts | 213° |
| 2026-05-07 18:06 | 48.72514 | 17.37397 | 21680 ft | 226 kts | 205° |
| 2026-05-07 18:06 | 48.71060 | 17.36525 | 21323 ft | 225 kts | 198° |
| 2026-05-07 18:07 | 48.69517 | 17.35997 | 20814 ft | 231 kts | 189° |
| 2026-05-07 18:07 | 48.67897 | 17.35823 | 20363 ft | 236 kts | 182° |
| 2026-05-07 18:07 | 48.66268 | 17.36020 | 20074 ft | 233 kts | 174° |
| 2026-05-07 18:07 | 48.64699 | 17.36583 | 19803 ft | 232 kts | 166° |
| 2026-05-07 18:08 | 48.63174 | 17.37519 | 19477 ft | 243 kts | 157° |
| 2026-05-07 18:08 | 48.61698 | 17.38864 | 19624 ft | 250 kts | 148° |
| 2026-05-07 18:08 | 48.60451 | 17.40541 | 20621 ft | 228 kts | 137° |
| 2026-05-07 18:08 | 48.59573 | 17.42414 | 21582 ft | 211 kts | 125° |
| 2026-05-07 18:09 | 48.58999 | 17.44463 | 20972 ft | 226 kts | 114° |
| 2026-05-07 18:09 | 48.58551 | 17.47073 | 19332 ft | 287 kts | 104° |
| 2026-05-07 18:09 | 48.58300 | 17.50130 | 19071 ft | 283 kts | 96° |
| 2026-05-07 18:09 | 48.58354 | 17.52813 | 19872 ft | 232 kts | 88° |
| 2026-05-07 18:10 | 48.58598 | 17.55153 | 19608 ft | 231 kts | 83° |
| 2026-05-07 18:10 | 48.58984 | 17.57739 | 18308 ft | 277 kts | 78° |
| 2026-05-07 18:10 | 48.59544 | 17.60621 | 17819 ft | 280 kts | 73° |
| 2026-05-07 18:10 | 48.60209 | 17.63142 | 18436 ft | 237 kts | 67° |
| 2026-05-07 18:11 | 48.60701 | 17.64606 | 18420 ft | 229 kts | 63° |
| 2026-05-07 18:11 | 48.61577 | 17.66764 | 17359 ft | 260 kts | 57° |
| 2026-05-07 18:11 | 48.62699 | 17.69047 | 16552 ft | 279 kts | 51° |
| 2026-05-07 18:11 | 48.63933 | 17.71103 | 16898 ft | 245 kts | 44° |
| 2026-05-07 18:12 | 48.65151 | 17.72735 | 16933 ft | 232 kts | 37° |
| 2026-05-07 18:12 | 48.66519 | 17.74212 | 16126 ft | 254 kts | 31° |
| 2026-05-07 18:12 | 48.68109 | 17.75562 | 15595 ft | 263 kts | 24° |
| 2026-05-07 18:12 | 48.69763 | 17.76603 | 15943 ft | 257 kts | 20° |
| 2026-05-07 18:13 | 48.71487 | 17.77913 | 14687 ft | 301 kts | 36° |
| 2026-05-07 18:13 | 48.72908 | 17.80467 | 13192 ft | 343 kts | 65° |